createdAt,value
2022-08-04T00:00:03.232Z,73.58
2022-08-04T00:01:03.725Z,72.88
2022-08-04T00:02:03.520Z,72.68
2022-08-04T00:03:03.660Z,73.48
2022-08-04T00:04:03.890Z,73.58
2022-08-04T00:05:03.522Z,72.88
2022-08-04T00:06:03.959Z,73.38
2022-08-04T00:07:03.656Z,74.48
2022-08-04T00:08:03.998Z,73.91
2022-08-04T00:09:03.892Z,73.18
2022-08-04T00:10:04.202Z,73.42
2022-08-04T00:11:03.878Z,73.91
2022-08-04T00:12:03.249Z,75.21
2022-08-04T00:13:03.700Z,76.61
2022-08-04T00:14:03.988Z,75.21
2022-08-04T00:15:03.847Z,74.91
2022-08-04T00:16:03.531Z,75.41
2022-08-04T00:17:03.560Z,74.62
2022-08-04T00:18:04.011Z,74.81
2022-08-04T00:19:03.756Z,74.41
2022-08-04T00:20:03.492Z,74.02
2022-08-04T00:21:03.835Z,73.72
2022-08-04T00:22:03.411Z,75.11
2022-08-04T00:23:03.746Z,73.61
2022-08-04T00:24:12.226Z,74.55
2022-08-04T00:25:03.424Z,76.65
2022-08-04T00:26:03.798Z,75.65
2022-08-04T00:27:03.482Z,73.72
2022-08-04T00:28:03.915Z,75.55
2022-08-04T00:29:03.644Z,73.72
2022-08-04T00:30:04.033Z,73.52
2022-08-04T00:31:03.701Z,73.45
2022-08-04T00:32:03.135Z,73.45
2022-08-04T00:33:03.389Z,73.35
2022-08-04T00:34:03.080Z,73.25
2022-08-04T00:35:03.479Z,72.85
2022-08-04T00:36:03.219Z,72.65
2022-08-04T00:37:03.575Z,72.35
2022-08-04T00:38:03.615Z,72.35
2022-08-04T00:39:03.947Z,73.15
2022-08-04T00:40:03.749Z,72.95
2022-08-04T00:41:03.527Z,74.45
2022-08-04T00:42:03.885Z,74.58
2022-08-04T00:43:03.826Z,74.29
2022-08-04T00:44:04.110Z,75.18
2022-08-04T00:45:03.978Z,74.49
2022-08-04T00:46:16.684Z,75.28
2022-08-04T00:47:04.102Z,73.88
2022-08-04T00:48:04.452Z,73.79
2022-08-04T00:49:03.999Z,73.79
2022-08-04T00:50:04.456Z,74.08
2022-08-04T00:51:04.100Z,73.39
2022-08-04T00:52:30.643Z,73.32
2022-08-04T00:53:03.933Z,73.88
2022-08-04T00:54:03.601Z,73.52
2022-08-04T00:55:06.920Z,73.82
2022-08-04T00:56:03.718Z,75.22
2022-08-04T00:57:04.115Z,75.52
2022-08-04T00:58:04.234Z,75.42
2022-08-04T00:59:04.002Z,75.72
2022-08-04T01:00:04.416Z,74.52
2022-08-04T01:01:04.485Z,73.72
2022-08-04T01:02:03.265Z,74.42
2022-08-04T01:03:03.634Z,73.92
2022-08-04T01:04:03.286Z,74.92
2022-08-04T01:05:03.432Z,74.22
2022-08-04T01:06:03.134Z,74.02
2022-08-04T01:07:03.517Z,75.32
2022-08-04T01:08:03.282Z,75.62
2022-08-04T01:09:03.377Z,75.02
2022-08-04T01:10:03.783Z,75.12
2022-08-04T01:11:03.427Z,75.65
2022-08-04T01:12:03.787Z,76.35
2022-08-04T01:13:07.732Z,75.16
2022-08-04T01:14:03.808Z,75.35
2022-08-04T01:15:04.146Z,76.76
2022-08-04T01:16:03.894Z,76.35
2022-08-04T01:17:03.586Z,76.56
2022-08-04T01:18:03.272Z,77.56
2022-08-04T01:19:03.478Z,77.36
2022-08-04T01:20:03.124Z,78.09
2022-08-04T01:21:03.223Z,78.29
2022-08-04T01:22:03.611Z,77.99
2022-08-04T01:23:03.265Z,77.56
2022-08-04T01:24:03.672Z,76.65
2022-08-04T01:25:04.651Z,77.99
2022-08-04T01:26:06.910Z,79.39
2022-08-04T01:27:04.154Z,79.09
2022-08-04T01:28:04.499Z,79.69
2022-08-04T01:29:04.215Z,78.79
2022-08-04T01:30:03.936Z,79.09
2022-08-04T01:31:04.424Z,79.19
2022-08-04T01:32:03.893Z,79.89
2022-08-04T01:33:03.588Z,80.09
2022-08-04T01:34:04.784Z,78.89
2022-08-04T01:35:03.620Z,79.19
2022-08-04T01:36:04.040Z,80.29
2022-08-04T01:37:04.523Z,78.89
2022-08-04T01:38:20.102Z,77.89
2022-08-04T01:39:04.676Z,78.29
2022-08-04T01:40:04.536Z,77.99
2022-08-04T01:41:04.196Z,77.79
2022-08-04T01:42:03.616Z,77.09
2022-08-04T01:43:03.420Z,76.89
2022-08-04T01:44:03.830Z,76.99
2022-08-04T01:45:03.501Z,76.29
2022-08-04T01:46:03.445Z,76.39
2022-08-04T01:47:04.127Z,76.19
2022-08-04T01:48:03.928Z,76.39
2022-08-04T01:49:04.299Z,76.79
2022-08-04T01:50:04.383Z,76.29
2022-08-04T01:51:04.074Z,75.49
2022-08-04T01:52:04.463Z,75.19
2022-08-04T01:53:04.116Z,74.89
2022-08-04T01:54:04.472Z,74.93
2022-08-04T01:55:04.465Z,75.29
2022-08-04T01:56:04.212Z,75.29
2022-08-04T01:57:38.400Z,75.52
2022-08-04T01:58:04.428Z,75.52
2022-08-04T01:59:04.719Z,75.43
2022-08-04T02:00:04.615Z,75.93
2022-08-04T02:01:05.219Z,77.23
2022-08-04T02:02:04.158Z,76.63
2022-08-04T02:03:04.152Z,77.33
2022-08-04T02:04:20.035Z,76.73
2022-08-04T02:05:03.882Z,77.23
2022-08-04T02:06:04.378Z,76.23
2022-08-04T02:07:03.828Z,76.53
2022-08-04T02:08:04.263Z,76.83
2022-08-04T02:09:03.897Z,76.43
2022-08-04T02:10:03.626Z,76.33
2022-08-04T02:11:04.274Z,77.43
2022-08-04T02:12:03.655Z,77.83
2022-08-04T02:13:03.334Z,77.03
2022-08-04T02:14:03.456Z,76.97
2022-08-04T02:15:03.783Z,77.76
2022-08-04T02:16:03.213Z,76.97
2022-08-04T02:17:04.351Z,76.76
2022-08-04T02:18:04.312Z,75.76
2022-08-04T02:19:03.936Z,75.56
2022-08-04T02:20:04.271Z,75.37
2022-08-04T02:21:03.930Z,75.67
2022-08-04T02:22:03.645Z,75.76
2022-08-04T02:23:04.016Z,76.87
2022-08-04T02:24:03.665Z,76.87
2022-08-04T02:25:04.044Z,75.96
2022-08-04T02:26:03.671Z,76.37
2022-08-04T02:27:04.703Z,76.46
2022-08-04T02:28:04.411Z,76.76
2022-08-04T02:29:04.743Z,77.26
2022-08-04T02:30:04.538Z,76.97
2022-08-04T02:31:04.187Z,79.77
2022-08-04T02:32:03.649Z,79.57
2022-08-04T02:33:04.134Z,79.86
2022-08-04T02:34:03.884Z,79.47
2022-08-04T02:35:03.898Z,80.21
2022-08-04T02:36:03.661Z,79.00
2022-08-04T02:37:04.717Z,80.41
2022-08-04T02:38:04.126Z,79.91
2022-08-04T02:39:04.587Z,78.91
2022-08-04T02:40:04.185Z,81.30
2022-08-04T02:41:04.423Z,81.01
2022-08-04T02:42:04.733Z,81.30
2022-08-04T02:43:04.394Z,81.01
2022-08-04T02:44:04.129Z,81.71
2022-08-04T02:45:04.528Z,81.81
2022-08-04T02:46:04.399Z,80.71
2022-08-04T02:47:03.871Z,81.21
2022-08-04T02:48:29.159Z,80.11
2022-08-04T02:49:04.352Z,79.10
2022-08-04T02:50:03.948Z,78.30
2022-08-04T02:51:04.437Z,78.80
2022-08-04T02:52:04.084Z,78.60
2022-08-04T02:53:04.430Z,78.41
2022-08-04T02:54:04.654Z,77.91
2022-08-04T02:55:04.526Z,77.60
2022-08-04T02:56:04.194Z,78.10
2022-08-04T02:57:04.366Z,78.10
2022-08-04T02:58:03.978Z,78.54
2022-08-04T02:59:03.714Z,78.04
2022-08-04T03:00:04.149Z,78.50
2022-08-04T03:01:04.255Z,78.60
2022-08-04T03:02:02.873Z,78.84
2022-08-04T03:03:03.269Z,78.24
2022-08-04T03:04:03.273Z,80.94
2022-08-04T03:05:02.880Z,79.34
2022-08-04T03:06:06.401Z,80.65
2022-08-04T03:07:03.442Z,78.44
2022-08-04T03:08:03.862Z,78.34
2022-08-04T03:09:03.870Z,77.54
2022-08-04T03:10:04.081Z,78.74
2022-08-04T03:11:03.726Z,78.94
2022-08-04T03:12:03.276Z,77.24
2022-08-04T03:13:03.645Z,77.04
2022-08-04T03:14:05.266Z,76.84
2022-08-04T03:15:03.045Z,77.04
2022-08-04T03:16:03.399Z,77.74
2022-08-04T03:17:03.756Z,77.64
2022-08-04T03:18:04.192Z,77.34
2022-08-04T03:19:03.979Z,77.84
2022-08-04T03:20:03.651Z,77.34
2022-08-04T03:21:03.901Z,80.74
2022-08-04T03:22:03.375Z,79.24
2022-08-04T03:23:13.363Z,78.54
2022-08-04T03:24:03.445Z,78.54
2022-08-04T03:25:03.145Z,78.04
2022-08-04T03:26:03.569Z,77.44
2022-08-04T03:27:03.925Z,77.94
2022-08-04T03:28:03.930Z,77.78
2022-08-04T03:29:04.437Z,79.88
2022-08-04T03:30:04.115Z,80.88
2022-08-04T03:31:03.696Z,79.78
2022-08-04T03:32:03.414Z,79.58
2022-08-04T03:33:03.009Z,78.58
2022-08-04T03:34:03.161Z,78.38
2022-08-04T03:35:02.949Z,80.28
2022-08-04T03:36:03.391Z,79.58
2022-08-04T03:37:03.784Z,78.78
2022-08-04T03:38:03.487Z,79.18
2022-08-04T03:39:04.195Z,78.28
2022-08-04T03:40:04.039Z,79.48
2022-08-04T03:41:03.818Z,78.68
2022-08-04T03:42:05.188Z,78.38
2022-08-04T03:43:03.641Z,78.18
2022-08-04T03:44:04.051Z,78.58
2022-08-04T03:45:03.826Z,79.18
2022-08-04T03:46:04.051Z,80.48
2022-08-04T03:47:03.474Z,79.88
2022-08-04T03:48:03.203Z,80.18
2022-08-04T03:49:03.682Z,80.08
2022-08-04T03:50:04.423Z,80.18
2022-08-04T03:51:03.749Z,79.58
2022-08-04T03:52:04.136Z,78.88
2022-08-04T03:53:03.853Z,79.78
2022-08-04T03:54:04.194Z,79.12
2022-08-04T03:55:03.977Z,78.72
2022-08-04T03:56:03.865Z,78.81
2022-08-04T03:57:03.364Z,79.02
2022-08-04T03:58:03.165Z,78.81
2022-08-04T03:59:03.578Z,79.22
2022-08-04T04:00:03.391Z,79.42
2022-08-04T04:01:03.531Z,79.92
2022-08-04T04:02:06.757Z,80.92
2022-08-04T04:03:03.831Z,82.12
2022-08-04T04:04:04.213Z,81.12
2022-08-04T04:05:04.082Z,80.22
2022-08-04T04:06:03.998Z,80.92
2022-08-04T04:07:03.612Z,81.12
2022-08-04T04:08:04.299Z,81.12
2022-08-04T04:09:03.551Z,80.72
2022-08-04T04:10:06.362Z,80.12
2022-08-04T04:11:03.088Z,79.62
2022-08-04T04:12:04.006Z,79.82
2022-08-04T04:13:04.018Z,80.42
2022-08-04T04:14:03.884Z,79.82
2022-08-04T04:15:03.841Z,79.52
2022-08-04T04:16:04.328Z,80.52
2022-08-04T04:17:03.758Z,80.02
2022-08-04T04:18:03.609Z,79.66
2022-08-04T04:19:03.614Z,80.32
2022-08-04T04:20:03.242Z,80.22
2022-08-04T04:21:03.698Z,80.72
2022-08-04T04:22:04.221Z,79.92
2022-08-04T04:23:04.064Z,81.73
2022-08-04T04:24:03.748Z,80.02
2022-08-04T04:25:03.837Z,79.92
2022-08-04T04:26:03.671Z,79.92
2022-08-04T04:27:03.857Z,80.72
2022-08-04T04:28:44.802Z,81.23
2022-08-04T04:29:03.622Z,81.52
2022-08-04T04:30:03.553Z,81.02
2022-08-04T04:31:03.587Z,80.36
2022-08-04T04:32:04.099Z,81.76
2022-08-04T04:33:03.964Z,80.56
2022-08-04T04:34:03.812Z,80.76
2022-08-04T04:35:03.591Z,80.86
2022-08-04T04:36:04.156Z,81.26
2022-08-04T04:37:02.994Z,80.16
2022-08-04T04:38:03.549Z,81.36
2022-08-04T04:39:03.411Z,80.06
2022-08-04T04:40:03.895Z,79.86
2022-08-04T04:41:03.071Z,79.96
2022-08-04T04:42:03.567Z,80.12
2022-08-04T04:43:03.880Z,81.52
2022-08-04T04:44:03.802Z,80.26
2022-08-04T04:45:03.571Z,80.06
2022-08-04T04:46:04.060Z,79.46
2022-08-04T04:47:03.878Z,79.05
2022-08-04T04:48:09.586Z,81.02
2022-08-04T04:49:04.194Z,80.42
2022-08-04T04:50:04.122Z,79.82
2022-08-04T04:51:04.226Z,80.52
2022-08-04T04:52:03.149Z,80.42
2022-08-04T04:53:03.387Z,81.12
2022-08-04T04:54:03.157Z,80.72
2022-08-04T04:55:03.678Z,80.62
2022-08-04T04:56:03.393Z,80.32
2022-08-04T04:57:03.158Z,80.02
2022-08-04T04:58:03.251Z,80.92
2022-08-04T04:59:03.738Z,79.92
2022-08-04T05:00:03.517Z,79.32
2022-08-04T05:01:03.173Z,78.72
2022-08-04T05:02:03.642Z,79.72
2022-08-04T05:03:07.238Z,79.62
2022-08-04T05:04:03.214Z,79.02
2022-08-04T05:05:03.554Z,78.61
2022-08-04T05:06:03.543Z,78.52
2022-08-04T05:07:03.367Z,78.52
2022-08-04T05:08:43.842Z,78.72
2022-08-04T05:09:03.475Z,79.62
2022-08-04T05:10:03.733Z,79.42
2022-08-04T05:11:03.514Z,79.52
2022-08-04T05:12:03.020Z,78.81
2022-08-04T05:14:35.657Z,80.62
2022-08-04T05:14:38.769Z,80.72
2022-08-04T05:15:03.151Z,80.02
2022-08-04T05:16:03.625Z,80.52
2022-08-04T05:17:03.402Z,80.92
2022-08-04T05:18:03.846Z,80.28
2022-08-04T05:19:03.582Z,80.08
2022-08-04T05:20:03.790Z,80.18
2022-08-04T05:21:03.451Z,79.98
2022-08-04T05:22:02.923Z,79.88
2022-08-04T05:23:03.408Z,80.08
2022-08-04T05:24:03.179Z,79.38
2022-08-04T05:25:02.838Z,79.08
2022-08-04T05:26:03.090Z,78.58
2022-08-04T05:27:03.522Z,79.04
2022-08-04T05:28:04.075Z,78.64
2022-08-04T05:29:04.062Z,78.24
2022-08-04T05:30:03.770Z,77.84
2022-08-04T05:31:03.573Z,78.14
2022-08-04T05:32:03.096Z,78.50
2022-08-04T05:33:02.921Z,78.70
2022-08-04T05:34:03.344Z,78.60
2022-08-04T05:35:03.114Z,78.50
2022-08-04T05:36:18.898Z,80.00
2022-08-04T05:37:03.427Z,80.30
2022-08-04T05:38:03.236Z,79.17
2022-08-04T05:39:03.814Z,78.86
2022-08-04T05:40:03.662Z,78.67
2022-08-04T05:41:03.455Z,78.77
2022-08-04T05:42:04.428Z,78.73
2022-08-04T05:43:03.951Z,78.73
2022-08-04T05:44:03.751Z,78.43
2022-08-04T05:45:04.291Z,78.53
2022-08-04T05:46:04.151Z,78.79
2022-08-04T05:47:03.041Z,78.39
2022-08-04T05:48:02.790Z,78.29
2022-08-04T05:49:02.916Z,77.99
2022-08-04T05:50:03.307Z,77.95
2022-08-04T05:51:03.176Z,77.66
2022-08-04T05:52:03.386Z,78.25
2022-08-04T05:53:03.900Z,78.02
2022-08-04T05:54:03.879Z,78.42
2022-08-04T05:55:03.678Z,78.52
2022-08-04T05:56:03.439Z,78.61
2022-08-04T05:57:03.905Z,78.38
2022-08-04T05:58:03.721Z,78.38
2022-08-04T05:59:04.201Z,78.08
2022-08-04T06:00:19.494Z,78.14
2022-08-04T06:01:03.995Z,77.94
2022-08-04T06:02:03.627Z,78.24
2022-08-04T06:03:03.396Z,78.11
2022-08-04T06:04:06.902Z,78.11
2022-08-04T06:05:03.478Z,78.60
2022-08-04T06:06:03.270Z,78.50
2022-08-04T06:07:03.840Z,78.27
2022-08-04T06:08:12.420Z,77.57
2022-08-04T06:09:03.679Z,77.23
2022-08-04T06:10:03.809Z,76.83
2022-08-04T06:11:03.606Z,76.83
2022-08-04T06:12:04.396Z,77.23
2022-08-04T06:13:03.230Z,76.70
2022-08-04T06:14:03.149Z,76.40
2022-08-04T06:15:03.008Z,76.79
2022-08-04T06:16:02.857Z,76.56
2022-08-04T06:17:03.432Z,76.36
2022-08-04T06:18:35.585Z,76.36
2022-08-04T06:20:02.597Z,76.46
2022-08-04T06:20:19.139Z,75.63
2022-08-04T06:21:03.684Z,76.03
2022-08-04T06:22:03.555Z,76.32
2022-08-04T06:23:03.599Z,76.09
2022-08-04T06:24:04.708Z,75.69
2022-08-04T06:25:03.323Z,75.29
2022-08-04T06:26:03.671Z,75.65
2022-08-04T06:27:03.259Z,75.76
2022-08-04T06:28:03.039Z,75.16
2022-08-04T06:29:02.890Z,74.93
2022-08-04T06:30:03.378Z,74.82
2022-08-04T06:32:30.604Z,74.82
2022-08-04T06:32:31.491Z,74.52
2022-08-04T06:33:05.118Z,74.89
2022-08-04T06:34:04.041Z,74.89
2022-08-04T06:35:03.807Z,74.79
2022-08-04T06:36:03.733Z,74.46
2022-08-04T06:37:04.053Z,74.65
2022-08-04T06:38:04.024Z,74.65
2022-08-04T06:39:03.863Z,74.65
2022-08-04T06:40:04.122Z,74.35
2022-08-04T06:41:04.284Z,74.16
2022-08-04T06:42:17.299Z,74.02
2022-08-04T06:43:04.085Z,74.02
2022-08-04T06:44:03.727Z,73.93
2022-08-04T06:45:04.245Z,73.43
2022-08-04T06:46:04.112Z,72.70
2022-08-04T06:47:03.356Z,72.50
2022-08-04T06:48:03.842Z,72.70
2022-08-04T06:49:03.842Z,73.00
2022-08-04T06:51:26.757Z,72.40
2022-08-04T06:52:03.933Z,72.17
2022-08-04T06:53:03.730Z,72.56
2022-08-04T06:54:03.816Z,72.13
2022-08-04T06:55:03.771Z,72.53
2022-08-04T06:56:03.554Z,72.60
2022-08-04T06:57:03.475Z,72.89
2022-08-04T06:58:03.804Z,72.26
2022-08-04T06:59:03.513Z,71.37
2022-08-04T07:00:02.998Z,71.77
2022-08-04T07:01:03.610Z,71.83
2022-08-04T07:02:03.316Z,70.94
2022-08-04T07:03:02.745Z,71.11
2022-08-04T07:04:03.352Z,70.12
2022-08-04T07:05:07.498Z,70.71
2022-08-04T07:06:05.617Z,69.09
2022-08-04T07:07:03.255Z,69.09
2022-08-04T07:08:03.231Z,67.97
2022-08-04T07:09:03.172Z,68.37
2022-08-04T07:10:03.133Z,68.24
2022-08-04T07:11:03.069Z,63.40
2022-08-04T07:12:03.690Z,65.05
2022-08-04T07:13:03.554Z,65.14
2022-08-04T07:14:03.787Z,64.84
2022-08-04T07:15:03.474Z,64.91
2022-08-04T07:16:03.342Z,64.91
2022-08-04T07:17:04.076Z,65.50
2022-08-04T07:18:03.893Z,65.77
2022-08-04T07:19:10.452Z,65.97
2022-08-04T07:20:03.785Z,66.03
2022-08-04T07:21:03.748Z,66.33
2022-08-04T07:22:25.420Z,65.51
2022-08-04T07:23:03.225Z,64.92
2022-08-04T07:24:03.126Z,65.11
2022-08-04T07:25:03.432Z,63.51
2022-08-04T07:26:12.280Z,62.62
2022-08-04T07:27:03.682Z,62.13
2022-08-04T07:28:03.576Z,59.77
2022-08-04T07:29:03.483Z,61.11
2022-08-04T07:30:03.375Z,62.10
2022-08-04T07:31:03.285Z,61.21
2022-08-04T07:32:03.774Z,60.79
2022-08-04T07:33:03.685Z,61.87
2022-08-04T07:34:17.372Z,62.27
2022-08-04T07:35:03.829Z,62.37
2022-08-04T07:36:10.729Z,61.35
2022-08-04T07:37:03.977Z,60.66
2022-08-04T07:38:03.808Z,59.97
2022-08-04T07:39:03.655Z,60.53
2022-08-04T07:40:03.552Z,60.63
2022-08-04T07:41:03.884Z,58.86
2022-08-04T07:42:02.854Z,59.84
2022-08-04T07:43:03.424Z,60.50
2022-08-04T07:44:03.220Z,60.80
2022-08-04T07:45:03.057Z,60.77
2022-08-04T07:46:03.537Z,60.87
2022-08-04T07:47:03.939Z,58.91
2022-08-04T07:48:05.125Z,56.26
2022-08-04T07:49:03.465Z,55.57
2022-08-04T07:50:04.031Z,56.16
2022-08-04T07:51:03.804Z,57.21
2022-08-04T07:52:03.632Z,58.39
2022-08-04T07:53:53.039Z,58.55
2022-08-04T07:54:03.966Z,58.85
2022-08-04T07:55:03.877Z,59.34
2022-08-04T07:56:03.994Z,58.04
2022-08-04T07:57:04.426Z,58.14
2022-08-04T07:58:03.923Z,55.78
2022-08-04T07:59:03.855Z,54.50
2022-08-04T08:00:04.433Z,55.49
2022-08-04T08:01:04.433Z,55.98
2022-08-04T08:02:03.218Z,55.39
2022-08-04T08:03:03.817Z,55.07
2022-08-04T08:04:03.554Z,54.97
2022-08-04T08:05:03.853Z,56.44
2022-08-04T08:06:17.601Z,55.24
2022-08-04T08:07:03.619Z,55.92
2022-08-04T08:08:04.129Z,55.43
2022-08-04T08:09:13.086Z,56.21
2022-08-04T08:10:03.820Z,54.91
2022-08-04T08:11:03.709Z,52.08
2022-08-04T08:12:38.043Z,53.64
2022-08-04T08:13:03.851Z,54.33
2022-08-04T08:14:03.682Z,54.82
2022-08-04T08:15:04.241Z,54.91
2022-08-04T08:16:04.112Z,54.23
2022-08-04T08:17:03.913Z,55.38
2022-08-04T08:18:03.937Z,55.87
2022-08-04T08:19:04.039Z,56.36
2022-08-04T08:20:04.484Z,53.62
2022-08-04T08:21:04.507Z,54.11
2022-08-04T08:22:03.503Z,55.94
2022-08-04T08:23:03.493Z,54.28
2022-08-04T08:24:03.613Z,54.77
2022-08-04T08:25:03.450Z,55.81
2022-08-04T08:26:03.585Z,54.15
2022-08-04T08:27:03.286Z,51.42
2022-08-04T08:28:03.505Z,51.90
2022-08-04T08:29:03.326Z,53.37
2022-08-04T08:30:03.660Z,55.13
2022-08-04T08:31:03.575Z,55.10
2022-08-04T08:32:08.151Z,51.68
2022-08-04T08:33:05.478Z,54.13
2022-08-04T08:34:04.181Z,54.42
2022-08-04T08:35:04.092Z,53.13
2022-08-04T08:36:04.357Z,50.49
2022-08-04T08:37:04.192Z,49.80
2022-08-04T08:38:04.172Z,52.05
2022-08-04T08:39:04.309Z,48.44
2022-08-04T08:40:04.221Z,48.44
2022-08-04T08:41:04.103Z,48.90
2022-08-04T08:42:03.747Z,50.75
2022-08-04T08:44:05.301Z,51.73
2022-08-04T08:44:05.723Z,52.41
2022-08-04T08:45:03.979Z,53.00
2022-08-04T08:46:03.778Z,51.31
2022-08-04T08:47:04.159Z,51.70
2022-08-04T08:48:05.850Z,52.87
2022-08-04T08:49:04.085Z,51.78
2022-08-04T08:50:04.978Z,52.07
2022-08-04T08:51:04.680Z,51.78
2022-08-04T08:52:04.593Z,50.99
2022-08-04T08:53:04.417Z,51.46
2022-08-04T08:54:04.959Z,50.19
2022-08-04T08:55:04.925Z,50.09
2022-08-04T08:56:04.782Z,49.12
2022-08-04T08:57:03.771Z,48.05
2022-08-04T08:58:03.703Z,48.12
2022-08-04T08:59:03.856Z,47.92
2022-08-04T09:00:03.680Z,47.25
2022-08-04T09:01:03.769Z,50.46
2022-08-04T09:02:03.148Z,50.65
2022-08-04T09:03:03.981Z,50.26
2022-08-04T09:04:03.431Z,50.82
2022-08-04T09:05:03.362Z,49.46
2022-08-04T09:06:02.849Z,44.69
2022-08-04T09:07:03.092Z,45.57
2022-08-04T09:08:03.087Z,48.68
2022-08-04T09:09:03.101Z,49.95
2022-08-04T09:10:03.368Z,50.21
2022-08-04T09:11:03.293Z,47.49
2022-08-04T09:12:03.013Z,45.45
2022-08-04T09:13:03.288Z,45.25
2022-08-04T09:14:03.189Z,45.84
2022-08-04T09:15:03.028Z,45.64
2022-08-04T09:16:02.922Z,45.54
2022-08-04T09:17:03.471Z,47.17
2022-08-04T09:18:03.251Z,45.72
2022-08-04T09:19:03.163Z,45.62
2022-08-04T09:20:03.482Z,46.01
2022-08-04T09:21:03.371Z,46.86
2022-08-04T09:22:03.327Z,45.89
2022-08-04T09:23:03.123Z,48.90
2022-08-04T09:24:02.863Z,48.13
2022-08-04T09:25:03.044Z,44.53
2022-08-04T09:26:03.007Z,45.57
2022-08-04T09:27:03.581Z,45.48
2022-08-04T09:28:06.116Z,44.41
2022-08-04T09:29:03.419Z,45.38
2022-08-04T09:30:03.199Z,43.44
2022-08-04T09:31:03.815Z,45.07
2022-08-04T09:32:06.788Z,42.44
2022-08-04T09:33:03.227Z,41.10
2022-08-04T09:34:03.085Z,43.24
2022-08-04T09:35:09.601Z,45.17
2022-08-04T09:36:03.033Z,46.14
2022-08-04T09:37:03.535Z,46.91
2022-08-04T09:38:03.238Z,41.96
2022-08-04T09:39:03.633Z,44.97
2022-08-04T09:40:03.552Z,47.18
2022-08-04T09:41:03.323Z,45.43
2022-08-04T09:42:03.854Z,45.62
2022-08-04T09:43:04.240Z,44.56
2022-08-04T09:44:51.294Z,46.38
2022-08-04T09:45:06.156Z,45.02
2022-08-04T09:46:03.845Z,44.64
2022-08-04T09:47:03.283Z,45.20
2022-08-04T09:48:03.109Z,43.06
2022-08-04T09:49:03.033Z,44.23
2022-08-04T09:50:02.996Z,43.74
2022-08-04T09:51:02.868Z,45.75
2022-08-04T09:52:04.034Z,42.36
2022-08-04T09:53:04.006Z,41.49
2022-08-04T09:54:03.906Z,41.30
2022-08-04T09:55:03.883Z,42.07
2022-08-04T09:56:04.081Z,42.55
2022-08-04T09:57:03.575Z,43.52
2022-08-04T09:58:03.582Z,42.46
2022-08-04T09:59:03.451Z,43.41
2022-08-04T10:00:03.388Z,44.27
2022-08-04T10:01:03.363Z,39.62
2022-08-04T10:02:04.008Z,40.69
2022-08-04T10:03:03.998Z,42.72
2022-08-04T10:04:03.984Z,41.76
2022-08-04T10:05:03.888Z,41.45
2022-08-04T10:06:03.782Z,41.25
2022-08-04T10:07:03.717Z,42.90
2022-08-04T10:08:15.608Z,40.77
2022-08-04T10:09:03.376Z,41.55
2022-08-04T10:10:03.594Z,41.16
2022-08-04T10:11:03.409Z,41.33
2022-08-04T10:12:03.890Z,42.00
2022-08-04T10:13:03.835Z,41.14
2022-08-04T10:14:03.865Z,36.58
2022-08-04T10:15:03.670Z,39.39
2022-08-04T10:16:03.565Z,38.81
2022-08-04T10:17:04.178Z,40.53
2022-08-04T10:18:03.713Z,39.86
2022-08-04T10:19:07.946Z,41.89
2022-08-04T10:20:04.065Z,40.71
2022-08-04T10:21:10.242Z,39.64
2022-08-04T10:22:28.463Z,39.36
2022-08-04T10:23:11.454Z,39.55
2022-08-04T10:24:04.170Z,40.42
2022-08-04T10:25:04.101Z,37.81
2022-08-04T10:26:07.918Z,38.87
2022-08-04T10:27:04.645Z,40.52
2022-08-04T10:28:04.450Z,39.55
2022-08-04T10:29:04.317Z,37.71
2022-08-04T10:30:04.076Z,39.16
2022-08-04T10:31:04.588Z,40.59
2022-08-04T10:32:03.460Z,38.97
2022-08-04T10:33:04.116Z,40.40
2022-08-04T10:34:04.018Z,38.28
2022-08-04T10:35:03.760Z,35.78
2022-08-04T10:36:03.664Z,37.71
2022-08-04T10:37:03.942Z,35.97
2022-08-04T10:38:04.569Z,37.32
2022-08-04T10:39:04.500Z,37.23
2022-08-04T10:40:04.156Z,38.00
2022-08-04T10:41:04.465Z,39.36
2022-08-04T10:42:04.362Z,40.20
2022-08-04T10:43:04.897Z,37.02
2022-08-04T10:44:04.747Z,36.16
2022-08-04T10:45:04.939Z,37.32
2022-08-04T10:46:04.803Z,38.97
2022-08-04T10:47:04.631Z,40.01
2022-08-04T10:48:03.668Z,36.24
2022-08-04T10:49:04.155Z,36.72
2022-08-04T10:50:04.119Z,38.37
2022-08-04T10:51:03.909Z,39.43
2022-08-04T10:52:03.861Z,39.72
2022-08-04T10:53:04.008Z,40.30
2022-08-04T10:54:03.973Z,40.20
2022-08-04T10:55:03.905Z,38.95
2022-08-04T10:56:06.136Z,36.44
2022-08-04T10:57:04.366Z,38.85
2022-08-04T10:58:04.849Z,39.62
2022-08-04T10:59:04.842Z,39.43
2022-08-04T11:00:04.791Z,38.85
2022-08-04T11:01:04.786Z,38.25
2022-08-04T11:02:04.628Z,39.34
2022-08-04T11:03:02.631Z,41.15
2022-08-04T11:04:02.609Z,41.73
2022-08-04T11:05:03.137Z,38.14
2022-08-04T11:06:02.956Z,40.65
2022-08-04T11:07:02.949Z,38.81
2022-08-04T11:08:06.506Z,39.97
2022-08-04T11:09:03.324Z,39.47
2022-08-04T11:10:03.304Z,38.51
2022-08-04T11:11:03.177Z,38.12
2022-08-04T11:12:03.096Z,37.45
2022-08-04T11:13:03.694Z,36.96
2022-08-04T11:14:03.215Z,39.47
2022-08-04T11:15:03.716Z,37.54
2022-08-04T11:16:04.007Z,38.79
2022-08-04T11:17:03.195Z,37.73
2022-08-04T11:18:03.828Z,38.23
2022-08-04T11:19:03.745Z,36.87
2022-08-04T11:20:32.269Z,36.87
2022-08-04T11:21:03.947Z,37.85
2022-08-04T11:22:03.806Z,37.65
2022-08-04T11:23:02.935Z,38.14
2022-08-04T11:24:02.904Z,40.24
2022-08-04T11:25:02.903Z,36.11
2022-08-04T11:26:02.895Z,37.08
2022-08-04T11:27:02.865Z,37.08
2022-08-04T11:28:03.784Z,37.46
2022-08-04T11:29:04.515Z,40.26
2022-08-04T11:30:03.578Z,38.89
2022-08-04T11:31:04.016Z,37.25
2022-08-04T11:32:03.931Z,37.63
2022-08-04T11:33:02.999Z,36.57
2022-08-04T11:34:02.928Z,37.54
2022-08-04T11:35:02.925Z,37.73
2022-08-04T11:36:03.509Z,36.94
2022-08-04T11:37:03.423Z,37.13
2022-08-04T11:38:03.463Z,35.50
2022-08-04T11:39:03.433Z,35.50
2022-08-04T11:40:03.999Z,37.52
2022-08-04T11:41:04.023Z,36.85
2022-08-04T11:42:03.955Z,34.14
2022-08-04T11:43:02.886Z,35.02
2022-08-04T11:44:07.907Z,33.95
2022-08-04T11:45:02.905Z,34.05
2022-08-04T11:46:02.991Z,32.21
2022-08-04T11:47:03.030Z,33.09
2022-08-04T11:48:03.672Z,31.85
2022-08-04T11:49:04.278Z,31.75
2022-08-04T11:50:04.158Z,33.22
2022-08-04T11:51:03.974Z,33.31
2022-08-04T11:52:03.860Z,32.92
2022-08-04T11:53:03.717Z,33.33
2022-08-04T11:54:03.727Z,33.23
2022-08-04T11:55:03.755Z,33.33
2022-08-04T11:56:08.204Z,33.52
2022-08-04T11:57:03.881Z,32.56
2022-08-04T11:58:03.529Z,32.75
2022-08-04T11:59:03.458Z,33.05
2022-08-04T12:00:07.619Z,32.38
2022-08-04T12:01:03.464Z,31.99
2022-08-04T12:02:04.158Z,33.63
2022-08-04T12:03:03.210Z,32.68
2022-08-04T12:04:03.586Z,34.62
2022-08-04T12:05:03.193Z,34.71
2022-08-04T12:06:03.163Z,34.04
2022-08-04T12:07:30.522Z,34.23
2022-08-04T12:08:03.846Z,32.87
2022-08-04T12:09:03.789Z,34.04
2022-08-04T12:10:03.716Z,34.04
2022-08-04T12:11:03.816Z,34.52
2022-08-04T12:12:04.282Z,33.76
2022-08-04T12:13:03.316Z,33.47
2022-08-04T12:14:03.345Z,34.92
2022-08-04T12:15:03.103Z,33.95
2022-08-04T12:16:03.695Z,34.15
2022-08-04T12:17:03.605Z,33.01
2022-08-04T12:18:03.657Z,33.59
2022-08-04T12:19:03.389Z,33.20
2022-08-04T12:20:31.425Z,35.42
2022-08-04T12:21:03.860Z,34.94
2022-08-04T12:22:03.801Z,33.59
2022-08-04T12:23:03.833Z,35.33
2022-08-04T12:24:03.813Z,33.99
2022-08-04T12:25:03.769Z,35.15
2022-08-04T12:26:04.355Z,34.09
2022-08-04T12:27:04.447Z,35.56
2022-08-04T12:28:04.153Z,34.88
2022-08-04T12:29:10.206Z,36.25
2022-08-04T12:30:59.411Z,35.77
2022-08-04T12:31:08.511Z,36.16
2022-08-04T12:32:04.700Z,36.46
2022-08-04T12:33:03.988Z,35.69
2022-08-04T12:34:06.503Z,35.98
2022-08-04T12:35:04.045Z,36.18
2022-08-04T12:36:11.373Z,37.24
2022-08-04T12:37:04.195Z,37.15
2022-08-04T12:38:03.868Z,36.97
2022-08-04T12:39:04.575Z,36.10
2022-08-04T12:40:29.116Z,36.10
2022-08-04T12:41:04.257Z,37.28
2022-08-04T12:42:04.111Z,37.18
2022-08-04T12:43:04.767Z,37.18
2022-08-04T12:44:04.557Z,37.86
2022-08-04T12:45:05.150Z,38.07
2022-08-04T12:46:05.001Z,36.61
2022-08-04T12:47:27.689Z,37.10
2022-08-04T12:48:04.421Z,37.68
2022-08-04T12:49:04.403Z,37.30
2022-08-04T12:50:04.857Z,39.26
2022-08-04T12:51:04.864Z,39.55
2022-08-04T12:52:07.857Z,39.84
2022-08-04T12:53:04.765Z,39.36